Time;durP1;ratioP1;P1;durP2;ratioP2;P2;SDS_P1;SDS_P2;PMS_P1;PMS_P2;Temp;Humidity;BMP_temperature;BMP_pressure;BME280_temperature;BME280_humidity;BME280_pressure;Samples;Min_cycle;Max_cycle;Signal;HPM_P1;HPM_P2
2022/08/31 00:04:39;;;;;;;1.92;0.90;;;17.30;99.90;;;;;;5004294;28;20477;-72
2022/08/31 00:07:04;;;;;;;5.97;1.00;;;17.30;99.90;;;;;;4991960;28;20041;-72
2022/08/31 00:09:31;;;;;;;3.35;0.95;;;17.30;99.90;;;;;;4996084;28;20045;-72
2022/08/31 00:11:57;;;;;;;1.65;0.90;;;17.30;99.90;;;;;;4985723;28;20085;-72
2022/08/31 00:14:24;;;;;;;1.00;0.90;;;17.20;99.90;;;;;;5011524;28;20077;-72
2022/08/31 00:16:49;;;;;;;1.02;0.85;;;17.20;99.90;;;;;;4996513;28;20044;-72
2022/08/31 00:19:15;;;;;;;1.90;0.82;;;17.10;99.90;;;;;;4996078;28;20030;-72
2022/08/31 00:21:41;;;;;;;4.47;0.90;;;17.10;99.90;;;;;;4992059;28;20227;-72
2022/08/31 00:24:07;;;;;;;3.78;0.73;;;17.10;99.90;;;;;;4999065;28;20509;-72
2022/08/31 00:26:33;;;;;;;3.70;0.85;;;17.10;99.90;;;;;;5012127;28;20066;-72
2022/08/31 00:28:59;;;;;;;2.20;0.80;;;17.10;99.90;;;;;;4986609;28;20038;-72
2022/08/31 00:31:24;;;;;;;1.60;0.80;;;17.10;99.90;;;;;;4996209;28;20066;-72
2022/08/31 00:33:51;;;;;;;1.27;0.90;;;17.00;99.90;;;;;;5012883;28;20088;-72
2022/08/31 00:36:20;;;;;;;2.83;0.90;;;17.00;99.90;;;;;;4993578;28;20125;-72
2022/08/31 00:38:47;;;;;;;2.55;0.82;;;17.00;99.90;;;;;;4994809;28;20046;-72
2022/08/31 00:41:13;;;;;;;1.67;0.80;;;17.00;99.90;;;;;;5009299;28;20034;-72
2022/08/31 00:43:49;;;;;;;1.25;0.93;;;17.00;99.90;;;;;;5012008;28;20045;-72
2022/08/31 00:46:19;;;;;;;1.48;0.70;;;17.00;99.90;;;;;;4985413;28;20089;-72
2022/08/31 00:48:54;;;;;;;1.33;0.70;;;16.90;99.90;;;;;;4995510;28;20045;-72
2022/08/31 00:51:20;;;;;;;0.75;0.65;;;16.90;99.90;;;;;;4996218;28;20050;-72
2022/08/31 00:53:47;;;;;;;2.38;0.80;;;16.80;99.90;;;;;;4995513;28;20048;-72
2022/08/31 00:56:13;;;;;;;2.28;0.63;;;16.80;99.90;;;;;;4996038;28;20038;-72
2022/08/31 00:58:39;;;;;;;1.67;0.70;;;16.80;99.90;;;;;;4996012;28;20073;-72
2022/08/31 01:01:07;;;;;;;1.33;0.60;;;16.80;99.90;;;;;;5010851;28;20100;-72
2022/08/31 01:03:33;;;;;;;1.63;0.70;;;16.80;99.70;;;;;;4990745;28;20072;-72
2022/08/31 01:05:59;;;;;;;1.10;0.77;;;16.70;99.00;;;;;;4995788;28;20038;-72
2022/08/31 01:08:24;;;;;;;4.18;0.73;;;16.70;98.20;;;;;;5009578;28;20029;-72
2022/08/31 01:10:50;;;;;;;1.85;0.50;;;16.80;98.20;;;;;;5005518;28;20054;-72
2022/08/31 01:13:16;;;;;;;1.35;0.60;;;16.70;97.70;;;;;;5002834;28;20038;-72
2022/08/31 01:15:48;;;;;;;0.80;0.52;;;16.80;97.30;;;;;;4991255;28;20041;-72
2022/08/31 01:18:14;;;;;;;;;;;16.80;96.90;;;;;;4994384;28;20069;-72
2022/08/31 01:21:07;;;;;;;2.60;0.60;;;16.80;96.70;;;;;;4988760;28;19917;-72
2022/08/31 01:23:37;;;;;;;0.52;0.50;;;16.80;96.10;;;;;;4975953;28;20100;-72
2022/08/31 01:26:05;;;;;;;1.48;0.50;;;16.80;96.20;;;;;;4993589;28;20125;-72
2022/08/31 01:28:32;;;;;;;0.85;0.60;;;16.70;96.30;;;;;;4985754;28;20065;-72
2022/08/31 01:31:08;;;;;;;0.70;0.60;;;16.70;96.40;;;;;;5001848;28;20038;-72
2022/08/31 01:33:37;;;;;;;1.00;0.40;;;16.70;96.10;;;;;;4995052;28;20042;-72
2022/08/31 01:36:03;;;;;;;2.35;0.60;;;16.60;96.10;;;;;;4987287;28;20092;-72
2022/08/31 01:38:32;;;;;;;0.63;0.60;;;16.60;96.30;;;;;;4993651;28;20044;-72
2022/08/31 01:41:02;;;;;;;2.28;0.50;;;16.60;96.00;;;;;;5003724;28;20041;-72
2022/08/31 01:43:32;;;;;;;1.75;0.47;;;16.50;96.10;;;;;;4993612;28;20038;-72
2022/08/31 01:45:59;;;;;;;3.08;0.63;;;16.50;96.40;;;;;;4988843;28;20037;-72
2022/08/31 01:48:25;;;;;;;0.70;0.68;;;16.40;96.40;;;;;;4998907;28;20093;-72
2022/08/31 01:50:50;;;;;;;0.50;0.50;;;16.40;96.40;;;;;;4996315;28;20375;-72
2022/08/31 01:53:16;;;;;;;3.80;1.10;;;16.30;96.60;;;;;;4988247;28;20038;-72
2022/08/31 01:55:42;;;;;;;0.50;0.50;;;16.30;96.30;;;;;;4994972;28;20045;-72
2022/08/31 01:58:08;;;;;;;0.82;0.60;;;16.30;96.30;;;;;;4994380;28;20100;-72
2022/08/31 02:00:34;;;;;;;1.05;0.52;;;16.20;96.80;;;;;;5006728;28;20073;-72
2022/08/31 02:03:02;;;;;;;1.10;0.70;;;16.20;96.80;;;;;;5003076;28;20157;-72
2022/08/31 02:05:28;;;;;;;1.55;0.60;;;16.10;96.90;;;;;;4990608;28;20053;-72
2022/08/31 02:07:54;;;;;;;0.65;0.50;;;16.10;96.90;;;;;;4999195;28;20042;-72
2022/08/31 02:10:20;;;;;;;1.30;0.60;;;16.00;97.20;;;;;;4996654;28;20077;-72
2022/08/31 02:12:46;;;;;;;1.17;0.73;;;16.00;97.20;;;;;;5008847;28;20429;-72
2022/08/31 02:15:12;;;;;;;3.28;0.60;;;15.90;97.30;;;;;;4998673;28;20498;-72
2022/08/31 02:17:37;;;;;;;0.68;0.57;;;15.90;97.40;;;;;;4999070;28;20121;-72
2022/08/31 02:20:05;;;;;;;1.73;0.60;;;15.80;97.60;;;;;;4984634;28;20421;-72
2022/08/31 02:22:30;;;;;;;0.75;0.63;;;15.70;97.90;;;;;;4989015;28;20041;-72
2022/08/31 02:24:56;;;;;;;1.20;0.50;;;15.70;98.20;;;;;;4994690;28;20049;-72
2022/08/31 02:27:23;;;;;;;1.10;0.63;;;15.60;98.10;;;;;;4982930;28;20465;-72
2022/08/31 02:29:49;;;;;;;3.65;0.68;;;15.60;98.40;;;;;;4989174;28;20050;-72
2022/08/31 02:32:14;;;;;;;4.55;0.75;;;15.50;98.50;;;;;;4994563;28;20104;-72
2022/08/31 02:34:40;;;;;;;1.85;0.45;;;15.50;98.60;;;;;;4985102;28;20093;-72
2022/08/31 02:37:06;;;;;;;2.85;0.70;;;15.50;98.80;;;;;;4992951;28;20493;-72
2022/08/31 02:39:32;;;;;;;0.70;0.70;;;15.40;98.90;;;;;;5009056;28;20096;-72
2022/08/31 02:41:58;;;;;;;0.88;0.60;;;15.30;98.90;;;;;;4998211;28;20043;-72
2022/08/31 02:44:24;;;;;;;0.43;0.43;;;15.30;99.00;;;;;;4980851;28;20489;-72
2022/08/31 02:46:49;;;;;;;1.42;0.70;;;15.20;98.90;;;;;;4987161;28;20038;-72
2022/08/31 02:49:15;;;;;;;0.82;0.50;;;15.20;99.10;;;;;;5001568;28;20646;-72
2022/08/31 02:51:41;;;;;;;0.50;0.50;;;15.10;99.40;;;;;;5005513;28;20543;-72
2022/08/31 02:54:08;;;;;;;1.67;0.55;;;15.10;99.60;;;;;;5010486;28;20041;-72
2022/08/31 02:56:34;;;;;;;0.70;0.60;;;15.10;99.70;;;;;;4992358;28;20065;-72
2022/08/31 02:58:59;;;;;;;1.75;0.73;;;15.00;99.50;;;;;;5010424;28;20069;-72
2022/08/31 03:01:25;;;;;;;3.42;0.70;;;14.90;99.60;;;;;;4978264;28;20516;-72
2022/08/31 03:03:51;;;;;;;0.50;0.50;;;14.90;99.70;;;;;;4983178;28;20042;-72
2022/08/31 03:06:18;;;;;;;2.22;0.60;;;14.90;99.80;;;;;;5010900;28;20145;-72
2022/08/31 03:08:45;;;;;;;2.45;0.63;;;14.90;99.90;;;;;;4985778;28;20130;-72
2022/08/31 03:11:10;;;;;;;0.40;0.40;;;14.90;99.90;;;;;;4990771;28;20117;-72
2022/08/31 03:13:37;;;;;;;0.88;0.60;;;14.80;99.90;;;;;;4999117;28;20580;-72
2022/08/31 03:16:04;;;;;;;0.60;0.60;;;14.70;99.90;;;;;;5004735;28;20042;-72
2022/08/31 03:18:30;;;;;;;2.55;0.60;;;14.70;99.90;;;;;;4987286;28;20041;-72
2022/08/31 03:20:55;;;;;;;1.02;0.70;;;14.60;99.90;;;;;;4990094;28;20046;-72
2022/08/31 03:23:21;;;;;;;0.60;0.55;;;14.60;99.90;;;;;;4992416;28;20042;-72
2022/08/31 03:25:47;;;;;;;0.93;0.68;;;14.50;99.90;;;;;;4986501;28;20049;-72
2022/08/31 03:28:13;;;;;;;1.10;0.60;;;14.50;99.90;;;;;;4985556;28;20045;-72
2022/08/31 03:30:39;;;;;;;1.30;0.60;;;14.40;99.90;;;;;;4981930;28;20034;-72
2022/08/31 03:33:05;;;;;;;1.13;0.75;;;14.40;99.90;;;;;;5007424;28;20139;-72
2022/08/31 03:35:31;;;;;;;1.10;0.50;;;14.40;99.90;;;;;;4986971;28;20030;-72
2022/08/31 03:37:57;;;;;;;2.42;0.80;;;14.40;99.90;;;;;;5001792;28;20046;-72
2022/08/31 03:40:23;;;;;;;0.70;0.63;;;14.30;99.90;;;;;;5005616;28;20489;-72
2022/08/31 03:42:49;;;;;;;2.65;0.70;;;14.30;99.90;;;;;;5011242;28;20052;-72
2022/08/31 03:45:15;;;;;;;2.03;0.70;;;14.30;99.90;;;;;;5013847;28;20038;-72
2022/08/31 03:47:40;;;;;;;2.08;0.80;;;14.30;99.90;;;;;;4997615;28;20365;-72
2022/08/31 03:50:09;;;;;;;2.42;0.80;;;14.20;99.90;;;;;;4997302;28;20049;-72
2022/08/31 03:52:36;;;;;;;0.80;0.55;;;14.10;99.90;;;;;;5008586;28;20492;-72
2022/08/31 03:55:02;;;;;;;1.45;0.80;;;14.10;99.90;;;;;;4996033;28;20633;-72
2022/08/31 03:57:28;;;;;;;0.95;0.85;;;14.10;99.90;;;;;;5004574;28;20059;-72
2022/08/31 03:59:56;;;;;;;4.13;0.90;;;14.10;99.90;;;;;;4988670;28;20046;-72
2022/08/31 04:02:23;;;;;;;2.25;0.77;;;14.10;99.90;;;;;;4987071;28;20085;-72
2022/08/31 04:04:52;;;;;;;2.50;0.82;;;14.10;99.90;;;;;;5010568;28;20140;-72
2022/08/31 04:07:19;;;;;;;0.65;0.65;;;14.00;99.90;;;;;;4998799;28;20103;-72
2022/08/31 04:09:45;;;;;;;1.63;0.80;;;14.00;99.90;;;;;;4996336;28;20096;-72
2022/08/31 04:12:12;;;;;;;3.05;0.90;;;14.00;99.90;;;;;;5012753;28;20054;-72
2022/08/31 04:14:38;;;;;;;2.38;0.80;;;14.00;99.90;;;;;;4997372;28;20484;-72
2022/08/31 04:17:04;;;;;;;1.00;0.90;;;13.90;99.90;;;;;;4996307;28;20046;-72
2022/08/31 04:19:29;;;;;;;1.35;0.88;;;13.90;99.90;;;;;;4991749;28;20045;-72
2022/08/31 04:21:56;;;;;;;2.83;0.90;;;13.90;99.90;;;;;;4997043;28;20042;-72
2022/08/31 04:24:22;;;;;;;2.17;0.88;;;13.90;99.90;;;;;;5011787;28;20034;-72
2022/08/31 04:26:50;;;;;;;1.45;0.85;;;13.90;99.90;;;;;;5013008;28;20374;-72
2022/08/31 04:29:16;;;;;;;2.33;0.90;;;13.80;99.90;;;;;;4993123;28;20042;-72
2022/08/31 04:31:42;;;;;;;4.32;1.20;;;13.80;99.90;;;;;;4996719;28;20040;-72
2022/08/31 04:34:07;;;;;;;1.00;0.90;;;13.80;99.90;;;;;;4990724;28;20096;-72
2022/08/31 04:36:33;;;;;;;2.47;1.00;;;13.70;99.90;;;;;;5005534;28;20054;-72
2022/08/31 04:39:02;;;;;;;1.60;0.90;;;13.70;99.90;;;;;;4994169;28;20037;-72
2022/08/31 04:41:30;;;;;;;0.90;0.90;;;13.70;99.90;;;;;;4990391;28;20060;-72
2022/08/31 04:43:58;;;;;;;1.77;1.10;;;13.70;99.90;;;;;;4987514;28;20121;-72
2022/08/31 04:46:24;;;;;;;1.98;0.80;;;13.60;99.90;;;;;;4998464;28;20050;-72
2022/08/31 04:48:50;;;;;;;1.17;1.15;;;13.60;99.90;;;;;;4990214;28;20133;-72
2022/08/31 04:51:20;;;;;;;2.60;0.90;;;13.60;99.90;;;;;;5012871;28;20089;-72
2022/08/31 04:53:46;;;;;;;2.20;1.00;;;13.60;99.90;;;;;;4989825;28;20121;-72
2022/08/31 04:56:15;;;;;;;2.05;0.98;;;13.60;99.90;;;;;;4995842;28;20053;-72
2022/08/31 04:58:44;;;;;;;1.23;1.08;;;13.50;99.90;;;;;;4996660;28;20665;-71
2022/08/31 05:01:12;;;;;;;1.58;0.85;;;13.60;99.90;;;;;;5005622;28;20543;-71
2022/08/31 05:03:39;;;;;;;1.33;1.10;;;13.50;99.90;;;;;;4990109;28;20152;-71
2022/08/31 05:06:10;;;;;;;1.33;1.02;;;13.50;99.90;;;;;;4996668;28;20049;-71
2022/08/31 05:08:37;;;;;;;3.38;1.10;;;13.40;99.90;;;;;;5005254;28;20174;-71
2022/08/31 05:11:09;;;;;;;7.45;1.15;;;13.50;99.90;;;;;;4994762;28;20069;-70
2022/08/31 05:13:36;;;;;;;1.20;1.10;;;13.50;99.90;;;;;;5004465;28;20038;-72
2022/08/31 05:16:04;;;;;;;3.00;1.17;;;13.50;99.90;;;;;;5012088;28;20045;-72
2022/08/31 05:18:30;;;;;;;2.03;1.20;;;13.50;99.90;;;;;;4993559;28;20038;-72
2022/08/31 05:20:56;;;;;;;3.60;1.10;;;13.50;99.90;;;;;;4996107;28;20176;-71
2022/08/31 05:23:21;;;;;;;2.33;0.98;;;13.50;99.90;;;;;;4991538;28;20046;-71
2022/08/31 05:25:47;;;;;;;3.38;1.20;;;13.60;99.90;;;;;;4989372;28;20042;-71
2022/08/31 05:28:13;;;;;;;1.35;1.10;;;13.60;99.90;;;;;;5007608;28;20045;-71
2022/08/31 05:30:43;;;;;;;2.70;0.93;;;13.60;99.90;;;;;;4984528;28;20049;-71
2022/08/31 05:33:09;;;;;;;1.15;1.05;;;13.60;99.90;;;;;;5008930;28;20049;-71
2022/08/31 05:35:35;;;;;;;2.42;1.00;;;13.60;99.90;;;;;;4986945;28;20045;-71
2022/08/31 05:38:00;;;;;;;1.70;0.90;;;13.70;99.90;;;;;;4991800;28;20029;-71
2022/08/31 05:40:26;;;;;;;1.88;0.95;;;13.70;99.90;;;;;;5010311;28;20092;-71
2022/08/31 05:42:52;;;;;;;1.90;1.05;;;13.70;99.90;;;;;;5011073;28;20081;-71
2022/08/31 05:45:18;;;;;;;3.13;1.10;;;13.70;99.90;;;;;;4989983;28;20586;-71
2022/08/31 05:47:43;;;;;;;22.38;1.75;;;13.70;99.90;;;;;;4992314;28;20034;-71
2022/08/31 05:50:10;;;;;;;0.90;0.90;;;13.80;99.90;;;;;;4992955;28;20045;-72
2022/08/31 05:52:35;;;;;;;1.30;0.90;;;13.80;99.90;;;;;;5008366;28;20041;-72
2022/08/31 05:55:01;;;;;;;3.85;1.00;;;13.80;99.90;;;;;;4993800;28;20049;-72
2022/08/31 05:57:27;;;;;;;2.38;1.08;;;13.90;99.90;;;;;;5003727;28;20049;-71
2022/08/31 05:59:52;;;;;;;3.17;1.23;;;13.90;99.90;;;;;;4999813;28;20121;-72
2022/08/31 06:02:18;;;;;;;1.80;0.90;;;13.90;99.90;;;;;;4994596;28;20069;-72
2022/08/31 06:04:43;;;;;;;1.20;1.00;;;14.00;99.90;;;;;;4989380;28;20042;-71
2022/08/31 06:07:10;;;;;;;3.28;0.98;;;14.00;99.90;;;;;;4987895;28;20042;-71
2022/08/31 06:09:37;;;;;;;4.30;1.30;;;14.10;99.90;;;;;;4984743;28;20132;-71
2022/08/31 06:12:04;;;;;;;1.67;1.02;;;14.00;99.90;;;;;;4984276;28;20056;-73
2022/08/31 06:14:31;;;;;;;1.67;0.98;;;14.10;99.90;;;;;;5003759;28;20073;-73
2022/08/31 06:16:58;;;;;;;5.45;1.23;;;14.10;99.90;;;;;;5004075;28;20100;-74
2022/08/31 06:19:26;;;;;;;3.47;1.30;;;14.20;99.90;;;;;;4983562;28;20077;-73
2022/08/31 06:21:51;;;;;;;2.35;1.20;;;14.20;99.90;;;;;;4985107;28;20046;-73
2022/08/31 06:24:18;;;;;;;1.92;1.17;;;14.30;99.90;;;;;;5003813;28;20042;-74
2022/08/31 06:26:51;;;;;;;1.10;1.00;;;14.30;99.90;;;;;;4986822;28;20042;-74
2022/08/31 06:29:16;;;;;;;;;;;14.30;99.90;;;;;;5001953;28;20030;-73
2022/08/31 06:31:45;;;;;;;3.03;1.20;;;14.30;99.90;;;;;;4982642;28;19932;-73
2022/08/31 06:34:12;;;;;;;3.10;1.20;;;14.30;99.90;;;;;;5001084;28;20141;-74
2022/08/31 06:36:37;;;;;;;3.78;1.58;;;14.40;99.90;;;;;;5000171;28;20034;-74
2022/08/31 06:39:04;;;;;;;2.13;1.20;;;14.50;99.90;;;;;;4981617;28;20057;-73
2022/08/31 06:41:33;;;;;;;2.25;1.10;;;14.50;99.90;;;;;;5001411;28;20045;-74
2022/08/31 06:44:00;;;;;;;2.55;1.38;;;14.50;99.90;;;;;;4984079;28;20049;-73
2022/08/31 06:46:27;;;;;;;3.70;1.20;;;14.60;99.90;;;;;;4985040;28;20509;-74
2022/08/31 06:48:54;;;;;;;1.45;1.27;;;14.70;99.90;;;;;;5003095;28;20378;-73
2022/08/31 06:51:20;;;;;;;2.53;1.13;;;14.70;99.90;;;;;;4991129;28;20061;-74
2022/08/31 06:53:46;;;;;;;2.28;1.23;;;14.80;99.90;;;;;;4989768;28;20041;-74
2022/08/31 06:56:18;;;;;;;3.50;1.30;;;14.80;99.90;;;;;;4992219;28;20049;-74
2022/08/31 06:58:44;;;;;;;1.38;1.08;;;14.90;99.90;;;;;;5005235;28;20484;-74
2022/08/31 07:01:12;;;;;;;2.97;1.02;;;15.00;99.90;;;;;;4991375;28;20061;-73
2022/08/31 07:03:40;;;;;;;2.55;1.33;;;15.00;99.90;;;;;;5003979;28;20046;-73
2022/08/31 07:06:15;;;;;;;1.77;1.10;;;15.10;99.90;;;;;;5005375;28;20602;-73
2022/08/31 07:08:43;;;;;;;1.40;1.13;;;15.10;99.90;;;;;;4984753;28;20053;-74
2022/08/31 07:11:19;;;;;;;2.17;1.20;;;15.20;99.90;;;;;;4988558;28;20041;-73
2022/08/31 07:13:46;;;;;;;3.83;1.25;;;15.30;99.90;;;;;;4990683;28;20635;-73
2022/08/31 07:16:14;;;;;;;3.15;1.23;;;15.30;99.90;;;;;;4987631;28;20084;-74
2022/08/31 07:18:41;;;;;;;1.63;1.00;;;15.50;99.90;;;;;;4990279;28;20052;-74
2022/08/31 07:21:25;;;;;;;3.50;1.33;;;15.50;99.90;;;;;;4988859;28;20053;-74
2022/08/31 07:23:52;;;;;;;3.13;1.33;;;15.60;99.90;;;;;;4991482;28;20045;-75
2022/08/31 07:26:24;;;;;;;4.68;1.10;;;15.80;99.90;;;;;;4986608;28;20042;-74
2022/08/31 07:28:52;;;;;;;2.25;1.35;;;16.00;99.90;;;;;;5006467;28;20037;-74
2022/08/31 07:31:25;;;;;;;1.45;0.90;;;16.10;99.90;;;;;;4970089;28;20787;-74
2022/08/31 07:33:54;;;;;;;1.70;1.00;;;16.30;99.90;;;;;;5008110;28;20041;-75
2022/08/31 07:36:23;;;;;;;4.05;1.10;;;16.40;99.90;;;;;;4988264;28;20066;-75
2022/08/31 07:42:18;;;;;;;3.90;1.05;;;16.70;99.90;;;;;;4987363;28;20081;-75
2022/08/31 07:44:21;;;;;;;2.40;0.95;;;16.80;99.90;;;;;;4983384;28;20405;-74
2022/08/31 07:46:48;;;;;;;2.22;0.98;;;17.00;99.90;;;;;;4988322;28;20507;-75
2022/08/31 07:49:15;;;;;;;2.53;1.10;;;17.10;99.90;;;;;;4989304;28;20042;-75
2022/08/31 07:51:45;;;;;;;3.10;0.82;;;17.10;99.90;;;;;;4984911;28;20469;-75
2022/08/31 07:54:12;;;;;;;5.95;1.20;;;17.20;99.90;;;;;;4991655;28;20069;-75
2022/08/31 07:56:41;;;;;;;1.88;0.90;;;17.30;99.90;;;;;;4990281;28;20489;-75
2022/08/31 07:59:08;;;;;;;3.03;1.17;;;17.40;99.90;;;;;;5007050;28;20431;-74
2022/08/31 08:01:36;;;;;;;3.10;0.93;;;17.40;99.90;;;;;;5004207;28;20543;-75
2022/08/31 08:04:02;;;;;;;1.92;0.80;;;17.50;99.90;;;;;;4987652;28;20026;-76
2022/08/31 08:06:28;;;;;;;1.27;0.82;;;17.70;99.90;;;;;;4992367;28;20507;-75
2022/08/31 08:08:56;;;;;;;1.95;1.00;;;17.70;99.90;;;;;;4987666;28;20052;-74
2022/08/31 08:11:21;;;;;;;4.68;0.85;;;17.80;99.90;;;;;;4981688;28;20493;-75
2022/08/31 08:13:48;;;;;;;1.13;0.90;;;17.90;99.90;;;;;;4984950;28;20054;-75
2022/08/31 08:16:14;;;;;;;3.75;0.82;;;18.10;99.90;;;;;;4969183;28;20552;-74
2022/08/31 08:18:40;;;;;;;1.15;0.82;;;18.20;99.90;;;;;;4984105;28;20500;-74
2022/08/31 08:21:06;;;;;;;1.45;0.77;;;18.30;99.90;;;;;;4983072;28;20497;-75
2022/08/31 08:23:32;;;;;;;1.63;0.90;;;18.40;99.90;;;;;;4982440;28;20056;-75
2022/08/31 08:26:00;;;;;;;2.65;0.90;;;18.50;99.90;;;;;;4984705;28;20081;-75
2022/08/31 08:28:29;;;;;;;3.33;0.88;;;18.70;99.90;;;;;;4973776;28;20116;-74
2022/08/31 08:30:59;;;;;;;1.75;0.90;;;18.80;99.90;;;;;;4989021;28;20432;-74
2022/08/31 08:33:27;;;;;;;2.60;0.80;;;18.90;99.90;;;;;;4988317;28;20133;-76
2022/08/31 08:35:58;;;;;;;2.17;0.90;;;19.00;99.90;;;;;;4989599;28;20489;-75
2022/08/31 08:38:28;;;;;;;1.92;0.90;;;19.10;99.90;;;;;;4987838;28;20451;-74
2022/08/31 08:40:54;;;;;;;3.53;0.90;;;19.10;99.90;;;;;;4986966;28;20500;-74
2022/08/31 08:43:30;;;;;;;1.40;0.80;;;19.20;99.90;;;;;;4989211;28;20053;-74
2022/08/31 08:45:57;;;;;;;2.10;0.90;;;19.30;99.90;;;;;;5009365;28;20373;-73
2022/08/31 08:48:26;;;;;;;1.13;0.63;;;19.30;99.90;;;;;;4996674;28;20369;-73
2022/08/31 08:50:53;;;;;;;3.42;0.85;;;19.30;99.90;;;;;;4991792;28;20493;-74
2022/08/31 08:53:23;;;;;;;1.23;0.73;;;19.50;99.90;;;;;;4994938;28;20477;-74
2022/08/31 08:55:50;;;;;;;3.03;0.75;;;19.50;99.80;;;;;;5010195;28;20042;-74
2022/08/31 08:58:18;;;;;;;3.13;0.85;;;19.60;99.10;;;;;;5012792;28;20443;-74
2022/08/31 09:00:53;;;;;;;2.92;0.77;;;19.70;98.90;;;;;;4991698;28;20408;-74
2022/08/31 09:03:43;;;;;;;2.83;0.70;;;19.90;98.30;;;;;;5008063;28;20038;-73
2022/08/31 09:06:24;;;;;;;2.08;0.80;;;20.00;97.50;;;;;;4990904;28;20124;-74
2022/08/31 09:08:58;;;;;;;0.90;0.80;;;20.10;98.10;;;;;;4991183;28;20496;-74
2022/08/31 09:12:06;;;;;;;4.05;0.90;;;20.20;97.10;;;;;;5010304;28;20392;-74
2022/08/31 09:15:14;;;;;;;1.65;0.80;;;20.30;96.70;;;;;;4992152;28;20095;-74
2022/08/31 09:18:07;;;;;;;4.45;0.70;;;20.40;96.20;;;;;;5011855;28;20508;-74
2022/08/31 09:20:33;;;;;;;2.88;0.80;;;20.50;95.80;;;;;;5007137;28;20042;-74
2022/08/31 09:22:59;;;;;;;3.17;0.70;;;20.60;95.00;;;;;;4986231;28;20499;-74
2022/08/31 09:25:48;;;;;;;1.98;0.80;;;20.70;94.80;;;;;;5006471;28;20038;-74
2022/08/31 09:28:15;;;;;;;0.70;0.70;;;20.80;95.60;;;;;;4982173;28;20065;-75
2022/08/31 09:30:43;;;;;;;4.57;0.90;;;20.90;95.10;;;;;;4990961;28;20053;-75
2022/08/31 09:33:17;;;;;;;5.82;0.70;;;21.00;94.40;;;;;;4992664;28;20120;-74
2022/08/31 09:35:43;;;;;;;4.65;0.70;;;21.10;93.80;;;;;;4992036;28;20128;-74
2022/08/31 09:38:15;;;;;;;1.92;0.65;;;21.20;92.90;;;;;;4989111;28;20081;-73
2022/08/31 09:40:42;;;;;;;;;;;21.30;92.40;;;;;;5007488;28;20126;-74
2022/08/31 09:43:08;;;;;;;2.28;0.90;;;21.40;92.00;;;;;;5008402;28;19917;-73
2022/08/31 09:45:35;;;;;;;2.90;0.70;;;21.50;92.20;;;;;;4992295;28;20520;-74
2022/08/31 09:48:03;;;;;;;3.45;0.80;;;21.60;92.00;;;;;;5007983;28;20117;-74
2022/08/31 09:50:34;;;;;;;3.25;0.77;;;21.70;91.60;;;;;;5009287;28;20040;-74
2022/08/31 09:56:12;;;;;;;4.18;0.75;;;22.00;87.40;;;;;;4993286;28;20085;-73
2022/08/31 09:59:00;;;;;;;2.38;0.70;;;22.00;87.90;;;;;;5006189;28;20037;-73
2022/08/31 10:01:37;;;;;;;6.03;0.98;;;22.10;86.00;;;;;;4991316;28;20046;-74
2022/08/31 10:04:22;;;;;;;5.25;0.75;;;22.10;86.20;;;;;;5004862;28;20088;-73
2022/08/31 10:07:16;;;;;;;1.73;0.70;;;22.20;84.90;;;;;;4986678;28;20033;-72
2022/08/31 10:09:57;;;;;;;3.90;0.90;;;22.10;85.20;;;;;;4989022;28;20042;-74
2022/08/31 10:12:42;;;;;;;4.88;1.10;;;22.00;85.20;;;;;;4972045;28;20050;-74
2022/08/31 10:15:20;;;;;;;0.60;0.60;;;21.90;84.90;;;;;;4976747;28;20116;-74
2022/08/31 10:18:10;;;;;;;2.45;0.73;;;21.80;86.20;;;;;;4993597;28;20038;-74
2022/08/31 10:20:49;;;;;;;6.75;0.80;;;21.80;86.20;;;;;;5009695;28;20057;-74
2022/08/31 10:23:53;;;;;;;1.35;0.70;;;21.90;86.50;;;;;;4989150;28;20057;-74
2022/08/31 10:26:35;;;;;;;6.03;0.80;;;22.10;85.50;;;;;;4987787;28;20045;-74
2022/08/31 10:29:14;;;;;;;4.13;0.60;;;22.20;84.60;;;;;;4999156;28;20046;-74
2022/08/31 10:31:45;;;;;;;1.60;0.75;;;22.30;83.50;;;;;;4987839;28;20096;-74
2022/08/31 10:37:08;;;;;;;2.53;0.52;;;22.60;82.40;;;;;;4981480;28;20089;-74
2022/08/31 10:39:41;;;;;;;5.25;0.85;;;22.50;80.80;;;;;;5011972;28;20041;-74
2022/08/31 10:42:22;;;;;;;1.15;0.60;;;22.60;80.80;;;;;;5011273;28;20053;-74
2022/08/31 10:44:59;;;;;;;2.85;0.70;;;22.50;81.50;;;;;;4985345;28;20041;-74
2022/08/31 10:47:29;;;;;;;3.70;0.70;;;22.70;80.20;;;;;;5008321;28;20080;-74
2022/08/31 10:49:57;;;;;;;6.07;1.00;;;22.70;80.00;;;;;;4985127;28;20104;-74
2022/08/31 10:52:41;;;;;;;2.25;0.65;;;22.80;79.70;;;;;;4992513;28;20066;-74
2022/08/31 10:55:32;;;;;;;4.28;0.80;;;23.00;79.90;;;;;;4990281;28;20069;-74
2022/08/31 10:58:21;;;;;;;4.80;0.63;;;23.10;79.60;;;;;;5004400;28;20052;-75
2022/08/31 11:00:49;;;;;;;6.45;0.60;;;23.20;77.30;;;;;;5007184;28;20115;-74
2022/08/31 11:03:34;;;;;;;2.47;0.70;;;23.20;75.00;;;;;;4989958;28;20400;-74
2022/08/31 11:06:11;;;;;;;5.65;0.80;;;23.30;75.60;;;;;;4990271;28;20037;-74
2022/08/31 11:08:56;;;;;;;2.45;0.85;;;23.30;74.40;;;;;;5009539;28;20048;-73
2022/08/31 11:11:40;;;;;;;6.68;0.82;;;23.50;74.80;;;;;;4990288;28;20034;-75
2022/08/31 11:14:38;;;;;;;9.02;0.90;;;23.60;73.00;;;;;;5006277;28;20152;-76
2022/08/31 11:17:32;;;;;;;4.93;0.65;;;23.60;73.80;;;;;;4985469;28;20045;-75
2022/08/31 11:20:16;;;;;;;1.30;0.57;;;23.60;74.20;;;;;;4984970;28;20052;-75
2022/08/31 11:22:55;;;;;;;1.00;0.65;;;23.80;73.90;;;;;;4991807;28;20137;-75
2022/08/31 11:26:03;;;;;;;1.65;0.70;;;24.00;73.00;;;;;;4988110;28;20042;-75
2022/08/31 11:28:47;;;;;;;5.05;0.55;;;24.10;72.70;;;;;;4996781;28;20129;-75
2022/08/31 11:31:22;;;;;;;4.03;0.60;;;24.30;71.90;;;;;;4989550;28;20069;-75
2022/08/31 11:33:55;;;;;;;2.47;0.57;;;24.30;70.30;;;;;;4992582;28;20034;-75
2022/08/31 11:36:48;;;;;;;5.57;0.70;;;24.30;69.60;;;;;;4990640;28;20030;-75
2022/08/31 11:39:19;;;;;;;3.50;0.65;;;24.30;68.50;;;;;;4970632;28;20038;-75
2022/08/31 11:41:46;;;;;;;2.38;0.55;;;24.20;68.20;;;;;;5008353;28;20066;-75
2022/08/31 11:44:38;;;;;;;6.45;0.75;;;24.30;68.80;;;;;;4986436;28;20049;-75
2022/08/31 11:47:11;;;;;;;1.73;0.60;;;24.40;67.10;;;;;;4990325;28;20055;-75
2022/08/31 11:49:48;;;;;;;6.18;0.70;;;24.40;67.60;;;;;;4990817;28;20301;-75
2022/08/31 11:52:23;;;;;;;2.75;0.70;;;24.50;66.50;;;;;;4991381;28;20041;-75
2022/08/31 11:54:49;;;;;;;3.15;0.82;;;24.50;67.30;;;;;;4989463;28;20041;-75
2022/08/31 11:57:30;;;;;;;3.22;0.50;;;24.60;66.60;;;;;;5008649;28;20069;-75
2022/08/31 11:59:58;;;;;;;3.83;0.63;;;24.70;66.40;;;;;;4989890;28;20132;-75
2022/08/31 12:02:24;;;;;;;4.53;0.65;;;24.90;65.70;;;;;;4991261;28;20090;-75
2022/08/31 12:04:59;;;;;;;3.30;0.65;;;25.10;64.20;;;;;;5004798;28;20038;-75
2022/08/31 12:07:41;;;;;;;3.20;0.70;;;25.10;62.50;;;;;;5009929;28;20037;-75
2022/08/31 12:10:25;;;;;;;0.95;0.68;;;25.30;61.80;;;;;;4990375;28;20112;-75
2022/08/31 12:13:06;;;;;;;3.15;0.55;;;25.30;61.50;;;;;;4985626;28;20047;-75
2022/08/31 12:15:59;;;;;;;9.75;0.85;;;25.40;62.20;;;;;;4993419;28;20064;-75
2022/08/31 12:18:47;;;;;;;2.33;0.60;;;25.40;61.80;;;;;;5005921;28;20030;-75
2022/08/31 12:24:40;;;;;;;2.40;0.52;;;25.60;60.40;;;;;;5008131;28;20050;-75
2022/08/31 12:27:47;;;;;;;2.10;0.60;;;25.80;61.10;;;;;;5010189;28;20096;-75
2022/08/31 12:30:23;;;;;;;0.75;0.60;;;25.90;60.40;;;;;;4975182;28;20580;-75
2022/08/31 12:33:14;;;;;;;2.05;0.70;;;26.10;59.00;;;;;;4994782;28;20392;-75
2022/08/31 12:35:39;;;;;;;2.20;0.70;;;26.40;56.70;;;;;;4991451;28;20033;-75
2022/08/31 12:38:09;;;;;;;4.20;0.70;;;26.60;57.00;;;;;;5009681;28;20037;-75
2022/08/31 12:40:43;;;;;;;2.80;0.52;;;26.70;58.50;;;;;;5011290;28;20084;-75
2022/08/31 12:43:47;;;;;;;2.28;0.63;;;26.60;56.70;;;;;;4996475;28;20044;-75
2022/08/31 12:46:29;;;;;;;2.63;0.70;;;26.60;55.20;;;;;;4992223;28;20049;-74
2022/08/31 12:49:15;;;;;;;;;;;26.60;56.50;;;;;;4990257;28;20053;-75
2022/08/31 12:52:13;;;;;;;8.32;0.85;;;26.60;55.40;;;;;;5008056;28;20292;-75
2022/08/31 12:55:08;;;;;;;1.58;0.65;;;26.80;55.30;;;;;;4994140;28;20042;-75
2022/08/31 12:57:52;;;;;;;2.67;0.60;;;26.90;55.20;;;;;;4989283;28;20096;-75
2022/08/31 13:00:25;;;;;;;2.42;0.63;;;27.00;55.80;;;;;;4992513;28;20038;-75
2022/08/31 13:03:14;;;;;;;2.95;0.80;;;27.10;54.10;;;;;;4995438;28;20042;-75
2022/08/31 13:05:40;;;;;;;3.42;0.82;;;27.10;53.90;;;;;;5007860;28;20040;-75
2022/08/31 13:08:20;;;;;;;2.80;0.75;;;27.20;52.60;;;;;;4988798;28;20045;-75
2022/08/31 13:10:46;;;;;;;1.52;0.70;;;27.20;53.20;;;;;;5001213;28;20040;-75
2022/08/31 13:13:24;;;;;;;4.82;0.82;;;27.30;52.40;;;;;;4989519;28;20493;-75
2022/08/31 13:15:56;;;;;;;1.42;0.90;;;27.50;51.50;;;;;;5009173;28;20092;-75
2022/08/31 13:18:24;;;;;;;;;;;27.60;51.10;;;;;;5003455;28;20055;-75
2022/08/31 13:21:04;;;;;;;4.80;1.00;;;27.70;51.90;;;;;;5009249;28;19917;-75
2022/08/31 13:23:42;;;;;;;5.35;0.70;;;27.80;51.70;;;;;;5007658;28;20160;-74